Time;durP1;ratioP1;P1;durP2;ratioP2;P2;SDS_P1;SDS_P2;PMS_P1;PMS_P2;Temp;Humidity;BMP_temperature;BMP_pressure;BME280_temperature;BME280_humidity;BME280_pressure;Samples;Min_cycle;Max_cycle;Signal;HPM_P1;HPM_P2
2023/07/01 00:02:12;;;;;;;6.77;2.10;;;;;;;;;;4993492;28;20038;-59
2023/07/01 00:04:41;;;;;;;27.30;7.63;;;;;;;;;;4993910;28;20038;-59
2023/07/01 00:07:07;;;;;;;4.53;2.43;;;;;;;;;;4994058;28;20033;-58
2023/07/01 00:09:34;;;;;;;13.17;1.60;;;;;;;;;;4988054;28;20042;-61
2023/07/01 00:12:01;;;;;;;1.30;1.00;;;;;;;;;;4988699;28;20104;-59
2023/07/01 00:14:28;;;;;;;3.97;1.67;;;;;;;;;;4988628;28;20378;-59
2023/07/01 00:16:55;;;;;;;5.93;2.43;;;;;;;;;;4978417;28;20397;-59
2023/07/01 00:19:21;;;;;;;1.40;1.00;;;;;;;;;;4973715;28;20034;-58
2023/07/01 00:21:48;;;;;;;1.33;1.10;;;;;;;;;;4974361;28;20019;-59
2023/07/01 00:24:15;;;;;;;1.23;0.83;;;;;;;;;;4974407;28;20508;-57
2023/07/01 00:26:42;;;;;;;1.23;0.83;;;;;;;;;;4974336;28;20030;-60
2023/07/01 00:29:08;;;;;;;1.13;0.80;;;;;;;;;;4984131;28;20022;-60
2023/07/01 00:31:35;;;;;;;2.57;1.10;;;;;;;;;;4988889;28;20077;-59
2023/07/01 00:34:02;;;;;;;1.67;1.27;;;;;;;;;;4988379;28;20477;-59
2023/07/01 00:36:29;;;;;;;1.23;0.90;;;;;;;;;;4988434;28;20446;-59
2023/07/01 00:38:55;;;;;;;3.87;1.53;;;;;;;;;;4988184;28;20397;-59
2023/07/01 00:41:22;;;;;;;0.77;0.70;;;;;;;;;;4992139;28;20350;-59
2023/07/01 00:43:49;;;;;;;2.27;1.20;;;;;;;;;;4993213;28;20473;-59
2023/07/01 00:46:16;;;;;;;1.53;1.07;;;;;;;;;;4992799;28;20497;-59
2023/07/01 00:48:43;;;;;;;1.73;1.10;;;;;;;;;;4993086;28;20114;-59
2023/07/01 00:51:10;;;;;;;1.90;1.17;;;;;;;;;;4993147;28;20034;-59
2023/07/01 00:53:39;;;;;;;2.53;1.30;;;;;;;;;;4989070;28;20037;-59
2023/07/01 00:56:06;;;;;;;2.30;1.30;;;;;;;;;;4988022;28;20393;-59
2023/07/01 00:58:33;;;;;;;2.40;0.80;;;;;;;;;;4987921;28;20045;-59
2023/07/01 01:01:03;;;;;;;1.13;0.77;;;;;;;;;;4987697;28;20145;-59
2023/07/01 01:03:35;;;;;;;1.03;0.60;;;;;;;;;;4991196;28;20456;-60
2023/07/01 01:06:05;;;;;;;0.90;0.70;;;;;;;;;;4993025;28;20076;-59
2023/07/01 01:08:38;;;;;;;1.10;0.67;;;;;;;;;;4992203;28;20405;-60
2023/07/01 01:11:05;;;;;;;0.77;0.57;;;;;;;;;;4993167;28;20373;-57
2023/07/01 01:13:33;;;;;;;1.23;0.87;;;;;;;;;;4993039;28;20560;-58
2023/07/01 01:16:02;;;;;;;1.90;1.17;;;;;;;;;;4988370;28;20026;-58
2023/07/01 01:18:31;;;;;;;3.07;1.50;;;;;;;;;;4987379;28;20034;-58
2023/07/01 01:20:58;;;;;;;2.00;1.53;;;;;;;;;;4987558;28;20536;-59
2023/07/01 01:23:31;;;;;;;1.07;0.73;;;;;;;;;;4987461;28;20166;-59
2023/07/01 01:26:07;;;;;;;1.00;0.67;;;;;;;;;;4991705;28;20416;-59
2023/07/01 01:28:35;;;;;;;0.80;0.60;;;;;;;;;;4992884;28;20041;-59
2023/07/01 01:31:02;;;;;;;1.03;0.40;;;;;;;;;;4993858;28;20026;-61
2023/07/01 01:33:29;;;;;;;1.53;0.80;;;;;;;;;;4992717;28;20117;-61
2023/07/01 01:35:59;;;;;;;0.63;0.33;;;;;;;;;;4992638;28;20030;-60
2023/07/01 01:38:29;;;;;;;1.33;0.83;;;;;;;;;;4987986;28;20038;-60
2023/07/01 01:41:17;;;;;;;1.70;0.90;;;;;;;;;;4987064;28;20034;-59
2023/07/01 01:43:43;;;;;;;9.07;1.00;;;;;;;;;;4987435;28;20034;-59
2023/07/01 01:46:11;;;;;;;1.97;0.73;;;;;;;;;;4987262;28;20031;-59
2023/07/01 01:48:38;;;;;;;10.23;1.17;;;;;;;;;;4992452;28;20116;-59
2023/07/01 01:51:05;;;;;;;5.87;1.20;;;;;;;;;;4992465;28;20130;-59
2023/07/01 01:53:33;;;;;;;0.87;0.67;;;;;;;;;;4992495;28;20026;-59
2023/07/01 01:56:00;;;;;;;0.60;0.60;;;;;;;;;;4992652;28;20074;-58
2023/07/01 01:58:27;;;;;;;2.23;0.73;;;;;;;;;;4992563;28;20023;-59
2023/07/01 02:00:55;;;;;;;3.13;1.00;;;;;;;;;;4987533;28;20117;-58
2023/07/01 02:03:23;;;;;;;1.10;0.60;;;;;;;;;;4987366;28;20039;-59
2023/07/01 02:05:50;;;;;;;1.07;0.57;;;;;;;;;;4987336;28;20072;-60
2023/07/01 02:08:16;;;;;;;1.40;0.73;;;;;;;;;;4986858;28;20030;-59
2023/07/01 02:10:43;;;;;;;1.67;0.80;;;;;;;;;;4991629;28;20037;-59
2023/07/01 02:13:10;;;;;;;0.87;0.60;;;;;;;;;;4992593;28;20022;-58
2023/07/01 02:15:37;;;;;;;1.03;0.80;;;;;;;;;;4991987;28;20026;-58
2023/07/01 02:18:03;;;;;;;1.77;1.20;;;;;;;;;;4989967;28;20541;-58
2023/07/01 02:20:31;;;;;;;6.87;1.33;;;;;;;;;;4995282;28;20073;-59
2023/07/01 02:22:58;;;;;;;2.27;1.40;;;;;;;;;;4990213;28;20030;-59
2023/07/01 02:25:24;;;;;;;3.27;1.50;;;;;;;;;;4990253;28;20026;-58
2023/07/01 02:27:51;;;;;;;20.17;1.53;;;;;;;;;;4990080;28;20085;-58
2023/07/01 02:30:18;;;;;;;0.80;0.70;;;;;;;;;;4990536;28;20037;-58
2023/07/01 02:32:45;;;;;;;2.20;0.70;;;;;;;;;;4994430;28;20034;-58
2023/07/01 02:35:11;;;;;;;17.07;1.37;;;;;;;;;;4995342;28;20025;-58
2023/07/01 02:37:38;;;;;;;3.40;1.70;;;;;;;;;;4995567;28;20109;-58
2023/07/01 02:40:05;;;;;;;2.80;1.27;;;;;;;;;;4995235;28;20033;-58
2023/07/01 02:42:32;;;;;;;1.40;0.90;;;;;;;;;;4979544;28;20022;-58
2023/07/01 02:44:59;;;;;;;1.93;1.30;;;;;;;;;;4990518;28;20441;-58
2023/07/01 02:47:26;;;;;;;3.03;1.77;;;;;;;;;;4990173;28;20026;-58
2023/07/01 02:49:52;;;;;;;2.03;1.43;;;;;;;;;;4990250;28;20085;-58
2023/07/01 02:52:19;;;;;;;2.00;1.13;;;;;;;;;;4989717;28;20044;-58
2023/07/01 02:54:46;;;;;;;1.90;1.23;;;;;;;;;;4993874;28;20033;-58
2023/07/01 02:57:13;;;;;;;2.77;1.37;;;;;;;;;;4995141;28;20022;-58
2023/07/01 02:59:40;;;;;;;1.70;0.90;;;;;;;;;;4995358;28;20446;-58
2023/07/01 03:02:07;;;;;;;3.57;1.00;;;;;;;;;;4994560;28;20481;-58
2023/07/01 03:04:34;;;;;;;1.57;1.20;;;;;;;;;;4995003;28;20066;-58
2023/07/01 03:07:01;;;;;;;1.40;0.90;;;;;;;;;;4991111;28;20030;-58
2023/07/01 03:09:28;;;;;;;2.27;1.13;;;;;;;;;;4989631;28;20040;-58
2023/07/01 03:11:55;;;;;;;2.27;1.30;;;;;;;;;;4989122;28;20033;-58
2023/07/01 03:14:21;;;;;;;1.70;1.20;;;;;;;;;;4989743;28;20034;-58
2023/07/01 03:16:49;;;;;;;1.90;0.93;;;;;;;;;;4992483;28;20421;-58
2023/07/01 03:19:16;;;;;;;2.13;1.10;;;;;;;;;;4994188;28;20410;-58
2023/07/01 03:21:44;;;;;;;0.53;0.30;;;;;;;;;;4994499;28;20522;-58
2023/07/01 03:24:10;;;;;;;1.70;1.10;;;;;;;;;;4994681;28;20026;-58
2023/07/01 03:26:37;;;;;;;2.57;1.37;;;;;;;;;;4994844;28;20023;-58
2023/07/01 03:29:04;;;;;;;9.43;1.50;;;;;;;;;;4990692;28;20030;-58
2023/07/01 03:31:33;;;;;;;9.20;1.10;;;;;;;;;;4987907;28;20094;-58
2023/07/01 03:34:00;;;;;;;1.60;0.97;;;;;;;;;;4989197;28;20034;-58
2023/07/01 03:36:26;;;;;;;2.23;0.67;;;;;;;;;;4989052;28;20058;-58
2023/07/01 03:38:53;;;;;;;1.67;1.23;;;;;;;;;;4991657;28;20052;-58
2023/07/01 03:41:20;;;;;;;9.33;1.00;;;;;;;;;;4994339;28;20030;-58
2023/07/01 03:43:47;;;;;;;1.17;0.83;;;;;;;;;;4994444;28;20053;-58
2023/07/01 03:46:13;;;;;;;2.23;1.43;;;;;;;;;;4993619;28;20037;-58
2023/07/01 03:48:40;;;;;;;1.60;1.27;;;;;;;;;;4994427;28;20085;-58
2023/07/01 03:51:07;;;;;;;7.27;1.83;;;;;;;;;;4991192;28;20038;-58
2023/07/01 03:53:34;;;;;;;1.77;1.40;;;;;;;;;;4988768;28;20041;-58
2023/07/01 03:56:00;;;;;;;2.40;1.50;;;;;;;;;;4988961;28;20524;-58
2023/07/01 03:58:27;;;;;;;1.83;1.47;;;;;;;;;;4988910;28;20489;-58
2023/07/01 04:00:54;;;;;;;2.17;1.63;;;;;;;;;;4991226;28;20030;-58
2023/07/01 04:03:24;;;;;;;2.17;1.47;;;;;;;;;;4993905;28;20065;-58
2023/07/01 04:05:51;;;;;;;1.80;1.33;;;;;;;;;;4993609;28;20441;-58
2023/07/01 04:08:18;;;;;;;2.03;1.30;;;;;;;;;;4993923;28;20038;-58
2023/07/01 04:10:45;;;;;;;2.37;1.90;;;;;;;;;;4993421;28;20085;-58
2023/07/01 04:13:12;;;;;;;2.70;1.60;;;;;;;;;;4990748;28;20097;-58
2023/07/01 04:15:38;;;;;;;1.13;1.00;;;;;;;;;;4988489;28;20033;-58
2023/07/01 04:18:05;;;;;;;1.33;1.10;;;;;;;;;;4983372;28;20125;-58
2023/07/01 04:20:32;;;;;;;9.90;1.20;;;;;;;;;;4988550;28;20023;-58
2023/07/01 04:22:59;;;;;;;3.37;1.70;;;;;;;;;;4990509;28;20521;-58
2023/07/01 04:25:25;;;;;;;2.37;1.70;;;;;;;;;;4993730;28;20076;-58
2023/07/01 04:27:52;;;;;;;2.33;1.70;;;;;;;;;;4993211;28;20028;-58
2023/07/01 04:30:19;;;;;;;1.77;1.37;;;;;;;;;;4993863;28;20037;-58
2023/07/01 04:32:46;;;;;;;1.40;1.20;;;;;;;;;;4992676;28;20050;-58
2023/07/01 04:35:12;;;;;;;1.27;0.97;;;;;;;;;;4989795;28;20049;-59
2023/07/01 04:37:39;;;;;;;0.83;0.73;;;;;;;;;;4986908;28;20543;-59
2023/07/01 04:40:06;;;;;;;0.70;0.70;;;;;;;;;;4987997;28;20524;-60
2023/07/01 04:42:34;;;;;;;2.03;1.50;;;;;;;;;;4987746;28;20102;-59
2023/07/01 04:45:01;;;;;;;2.07;1.40;;;;;;;;;;4989590;28;20046;-59
2023/07/01 04:47:28;;;;;;;2.17;1.47;;;;;;;;;;4992892;28;20113;-60
2023/07/01 04:49:55;;;;;;;5.40;1.03;;;;;;;;;;4992651;28;20034;-59
2023/07/01 04:52:22;;;;;;;1.87;1.03;;;;;;;;;;4993123;28;20057;-59
2023/07/01 04:54:49;;;;;;;1.67;1.00;;;;;;;;;;4993107;28;20076;-58
2023/07/01 04:57:16;;;;;;;1.80;1.43;;;;;;;;;;4990973;28;20049;-59
2023/07/01 04:59:43;;;;;;;4.27;1.90;;;;;;;;;;4988030;28;20030;-59
2023/07/01 05:02:09;;;;;;;10.97;1.77;;;;;;;;;;4987158;28;20101;-59
2023/07/01 05:04:37;;;;;;;3.50;1.60;;;;;;;;;;4987870;28;20030;-60
2023/07/01 05:07:04;;;;;;;2.90;1.63;;;;;;;;;;4988744;28;20109;-59
2023/07/01 05:09:31;;;;;;;4.97;1.23;;;;;;;;;;4992745;28;20066;-59
2023/07/01 13:11:14;;;;;;;12.83;0.67;;;;;;;;;;5116442;23;20114;-60
2023/07/01 13:13:41;;;;;;;0.73;0.57;;;;;;;;;;4935425;29;20086;-61
2023/07/01 13:16:16;;;;;;;2.03;0.80;;;;;;;;;;4945885;29;20030;-60
2023/07/01 13:18:44;;;;;;;1.30;0.87;;;;;;;;;;4935222;29;20028;-62
2023/07/01 13:21:10;;;;;;;1.40;0.80;;;;;;;;;;4941104;29;20474;-62
2023/07/01 13:23:37;;;;;;;0.63;0.47;;;;;;;;;;4937580;29;20036;-62
2023/07/01 13:26:04;;;;;;;1.80;0.70;;;;;;;;;;4932383;29;20074;-62
2023/07/01 13:28:31;;;;;;;4.33;1.00;;;;;;;;;;4941264;29;20039;-63
2023/07/01 13:30:57;;;;;;;1.00;0.70;;;;;;;;;;4930440;29;20026;-62
2023/07/01 13:33:25;;;;;;;0.30;0.30;;;;;;;;;;4934937;29;20514;-62
2023/07/01 13:35:52;;;;;;;0.40;0.40;;;;;;;;;;4935037;29;20020;-62
2023/07/01 13:38:19;;;;;;;2.73;0.60;;;;;;;;;;4934638;29;20063;-62
2023/07/01 13:40:47;;;;;;;1.27;0.77;;;;;;;;;;4935023;29;20122;-64
2023/07/01 13:43:16;;;;;;;1.57;0.87;;;;;;;;;;4933453;29;20099;-63
2023/07/01 13:45:43;;;;;;;0.77;0.70;;;;;;;;;;4945250;29;20511;-61
2023/07/01 13:48:19;;;;;;;5.30;1.03;;;;;;;;;;4929463;29;20051;-62
2023/07/01 13:50:45;;;;;;;;;;;;;;;;;;4913402;29;20503;-61
2023/07/01 13:53:12;;;;;;;0.70;0.70;;;;;;;;;;4944818;29;19934;-60
2023/07/01 13:55:41;;;;;;;0.80;0.60;;;;;;;;;;4934852;29;20027;-60
2023/07/01 13:58:08;;;;;;;2.93;1.37;;;;;;;;;;4934714;29;20463;-62
2023/07/01 14:00:53;;;;;;;2.53;1.43;;;;;;;;;;4938603;29;20023;-60
2023/07/01 14:03:23;;;;;;;1.50;1.00;;;;;;;;;;4949524;29;20024;-61
2023/07/01 14:05:53;;;;;;;2.30;1.30;;;;;;;;;;4932151;29;20044;-62
2023/07/01 14:08:22;;;;;;;2.27;0.70;;;;;;;;;;4929262;29;20111;-63
2023/07/01 14:10:49;;;;;;;0.63;0.50;;;;;;;;;;4929294;29;20039;-62
2023/07/01 14:13:17;;;;;;;1.13;0.70;;;;;;;;;;4929194;29;20043;-61
2023/07/01 14:15:53;;;;;;;1.10;0.60;;;;;;;;;;4942924;28;20024;-62
2023/07/01 14:18:19;;;;;;;4.30;0.80;;;;;;;;;;4942424;29;20038;-62
2023/07/01 14:20:50;;;;;;;1.00;0.80;;;;;;;;;;4938289;29;20099;-61
2023/07/01 14:23:20;;;;;;;0.83;0.70;;;;;;;;;;4938164;29;20035;-62
2023/07/01 14:25:47;;;;;;;0.80;0.57;;;;;;;;;;4940339;29;20042;-62
2023/07/01 14:28:14;;;;;;;1.40;0.80;;;;;;;;;;4953891;29;20031;-63
2023/07/01 14:30:47;;;;;;;0.73;0.57;;;;;;;;;;4951789;29;20031;-63
2023/07/01 14:33:14;;;;;;;1.10;0.93;;;;;;;;;;4951407;29;20101;-62
2023/07/01 14:35:40;;;;;;;1.40;0.80;;;;;;;;;;4951346;29;20106;-61
2023/07/01 14:38:09;;;;;;;1.93;0.87;;;;;;;;;;4947893;29;20023;-61
2023/07/01 14:40:36;;;;;;;0.83;0.77;;;;;;;;;;4937533;29;20390;-62
2023/07/01 14:43:07;;;;;;;4.90;1.13;;;;;;;;;;4954932;29;20486;-62
2023/07/01 14:45:33;;;;;;;1.03;0.60;;;;;;;;;;4956863;29;20066;-62
2023/07/01 14:48:00;;;;;;;1.20;0.60;;;;;;;;;;4956643;29;20027;-62
2023/07/01 14:50:27;;;;;;;0.83;0.57;;;;;;;;;;4937404;29;20032;-62
2023/07/01 14:52:54;;;;;;;8.30;1.00;;;;;;;;;;4933140;29;20171;-63
2023/07/01 14:55:20;;;;;;;3.07;0.90;;;;;;;;;;4951157;29;20050;-62
2023/07/01 14:57:47;;;;;;;0.80;0.63;;;;;;;;;;4951274;29;20031;-60
2023/07/01 15:00:14;;;;;;;0.43;0.43;;;;;;;;;;4953910;29;20556;-60
2023/07/01 15:02:41;;;;;;;3.75;0.75;;;;;;;;;;4956351;29;20398;-61
2023/07/01 15:05:08;;;;;;;1.07;0.90;;;;;;;;;;4956323;29;20046;-62
2023/07/01 15:07:34;;;;;;;1.52;1.20;;;;;;;;;;4946160;29;20110;-60
2023/07/01 15:10:02;;;;;;;1.45;1.00;;;;;;;;;;4936888;29;20032;-60
2023/07/01 15:12:31;;;;;;;1.60;0.95;;;;;;;;;;4934575;29;20032;-60
2023/07/01 15:14:57;;;;;;;0.98;0.70;;;;;;;;;;4931652;29;20479;-63
2023/07/01 15:17:24;;;;;;;0.77;0.65;;;;;;;;;;4931817;29;20024;-60
2023/07/01 15:19:51;;;;;;;0.73;0.55;;;;;;;;;;4932086;29;20028;-61
2023/07/01 15:22:18;;;;;;;2.63;0.95;;;;;;;;;;4944288;29;20050;-62
2023/07/01 15:24:44;;;;;;;0.70;0.55;;;;;;;;;;4936578;29;20375;-60
2023/07/01 15:27:11;;;;;;;0.73;0.55;;;;;;;;;;4936267;29;20478;-62
2023/07/01 15:29:38;;;;;;;0.40;0.40;;;;;;;;;;4936881;29;20110;-60
2023/07/01 15:32:05;;;;;;;0.47;0.47;;;;;;;;;;4935240;29;20498;-61
2023/07/01 15:34:32;;;;;;;1.27;0.90;;;;;;;;;;4932681;29;20055;-61
2023/07/01 15:36:58;;;;;;;2.00;0.90;;;;;;;;;;4930266;29;20028;-62
2023/07/01 15:39:25;;;;;;;0.63;0.50;;;;;;;;;;4930920;29;20059;-62
2023/07/01 15:41:52;;;;;;;1.55;0.90;;;;;;;;;;4937825;29;20031;-61
2023/07/01 15:44:18;;;;;;;0.98;0.68;;;;;;;;;;4949575;29;20047;-62
2023/07/01 15:46:45;;;;;;;0.63;0.57;;;;;;;;;;4955268;29;20050;-63
2023/07/01 15:49:12;;;;;;;0.88;0.52;;;;;;;;;;4954969;29;20023;-62
2023/07/01 15:51:40;;;;;;;3.10;0.95;;;;;;;;;;4955864;29;20482;-63
2023/07/01 15:54:07;;;;;;;0.40;0.40;;;;;;;;;;4955632;29;20151;-62
2023/07/01 15:56:34;;;;;;;1.20;0.75;;;;;;;;;;4953140;29;20039;-61
2023/07/01 15:59:00;;;;;;;0.75;0.50;;;;;;;;;;4950177;29;20023;-62
2023/07/01 16:01:27;;;;;;;3.03;1.40;;;;;;;;;;4940171;29;20039;-62
2023/07/01 16:03:54;;;;;;;0.60;0.43;;;;;;;;;;4930900;29;20079;-62
2023/07/01 16:06:21;;;;;;;0.30;0.30;;;;;;;;;;4932392;29;20393;-62
2023/07/01 16:08:50;;;;;;;0.98;0.52;;;;;;;;;;4936476;29;20442;-62
2023/07/01 16:11:37;;;;;;;2.55;0.63;;;;;;;;;;4935720;29;20087;-62
2023/07/01 16:14:04;;;;;;;5.50;0.68;;;;;;;;;;4937129;29;20028;-62
2023/07/01 16:16:31;;;;;;;0.30;0.30;;;;;;;;;;4936030;29;20036;-61
2023/07/01 16:18:58;;;;;;;0.63;0.47;;;;;;;;;;4933585;29;20028;-62
2023/07/01 16:21:25;;;;;;;0.70;0.50;;;;;;;;;;4930751;29;20356;-62
2023/07/01 16:23:59;;;;;;;0.45;0.40;;;;;;;;;;4928319;29;20046;-63
2023/07/01 16:26:41;;;;;;;0.88;0.50;;;;;;;;;;4930571;29;20034;-62
2023/07/01 16:29:09;;;;;;;0.63;0.43;;;;;;;;;;4933172;29;20428;-61
2023/07/01 16:31:37;;;;;;;0.60;0.50;;;;;;;;;;4935913;29;20027;-62
2023/07/01 16:34:06;;;;;;;3.00;0.57;;;;;;;;;;4938917;29;20115;-62
2023/07/01 16:36:35;;;;;;;0.52;0.45;;;;;;;;;;4936176;29;20330;-61
2023/07/01 16:39:09;;;;;;;2.20;1.13;;;;;;;;;;4935489;29;20024;-62
2023/07/01 16:41:36;;;;;;;14.77;0.60;;;;;;;;;;4932363;29;20032;-61
2023/07/01 16:44:03;;;;;;;0.52;0.45;;;;;;;;;;4930160;29;20087;-61
2023/07/01 16:46:32;;;;;;;0.75;0.60;;;;;;;;;;4929810;29;20028;-62
2023/07/01 16:48:59;;;;;;;0.20;0.20;;;;;;;;;;4939676;29;20036;-62
2023/07/01 16:54:11;;;;;;;0.30;0.30;;;;;;;;;;5408804;23;19922;-69
2023/07/01 16:56:39;;;;;;;1.58;0.45;;;;;;;;;;4935863;29;20055;-72
2023/07/01 16:59:07;;;;;;;0.40;0.30;;;;;;;;;;4927426;29;20374;-69
2023/07/01 17:01:39;;;;;;;8.00;0.57;;;;;;;;;;4918458;29;20024;-71
2023/07/01 17:04:06;;;;;;;0.43;0.40;;;;;;;;;;4935126;29;20552;-70
2023/07/01 17:06:33;;;;;;;0.45;0.40;;;;;;;;;;4930561;29;20028;-70
2023/07/01 17:09:00;;;;;;;0.60;0.40;;;;;;;;;;4930025;29;20032;-73
2023/07/01 17:11:46;;;;;;;1.23;0.47;;;;;;;;;;4928711;29;20050;-71
2023/07/01 17:14:23;;;;;;;1.02;0.60;;;;;;;;;;4929987;28;20779;-66
2023/07/01 17:16:49;;;;;;;0.45;0.40;;;;;;;;;;4915392;29;20031;-64
2023/07/01 17:19:16;;;;;;;0.32;0.30;;;;;;;;;;4916283;29;20028;-64
2023/07/01 17:21:43;;;;;;;0.20;0.20;;;;;;;;;;4916212;29;20036;-58
2023/07/01 17:24:10;;;;;;;0.22;0.22;;;;;;;;;;4916263;29;20401;-59
2023/07/01 17:26:37;;;;;;;0.45;0.30;;;;;;;;;;4916137;29;20032;-60
2023/07/01 17:29:04;;;;;;;0.32;0.28;;;;;;;;;;4911130;29;20024;-60
2023/07/01 17:31:30;;;;;;;0.25;0.25;;;;;;;;;;4910950;29;20144;-60
2023/07/01 17:33:57;;;;;;;0.52;0.32;;;;;;;;;;4910801;29;20652;-60
2023/07/01 17:36:24;;;;;;;1.55;0.30;;;;;;;;;;4910405;29;20483;-60
2023/07/01 17:38:51;;;;;;;0.85;0.40;;;;;;;;;;4914501;29;20058;-60
2023/07/01 17:41:17;;;;;;;0.65;0.45;;;;;;;;;;4916104;29;20039;-59
2023/07/01 17:43:44;;;;;;;1.02;0.45;;;;;;;;;;4916121;29;20032;-59
2023/07/01 17:46:11;;;;;;;0.47;0.25;;;;;;;;;;4915907;29;20379;-60
2023/07/01 17:48:38;;;;;;;0.30;0.20;;;;;;;;;;4932619;29;20043;-60
2023/07/01 17:51:04;;;;;;;0.38;0.22;;;;;;;;;;4952082;28;20466;-60
2023/07/01 17:53:31;;;;;;;1.35;0.50;;;;;;;;;;4952687;29;20086;-61
2023/07/01 17:55:58;;;;;;;0.47;0.28;;;;;;;;;;4952461;29;20813;-60
2023/07/01 17:58:25;;;;;;;1.13;0.43;;;;;;;;;;4952523;29;20043;-61
2023/07/01 18:00:51;;;;;;;0.88;0.40;;;;;;;;;;4956063;29;20027;-60
2023/07/01 18:03:18;;;;;;;3.20;0.22;;;;;;;;;;4955790;29;20031;-60
2023/07/01 18:05:45;;;;;;;0.75;0.50;;;;;;;;;;4938439;29;20103;-59
2023/07/01 18:08:12;;;;;;;1.63;0.80;;;;;;;;;;4938057;29;20124;-60
2023/07/01 18:10:39;;;;;;;2.67;0.80;;;;;;;;;;4938512;29;20088;-60
2023/07/01 18:13:06;;;;;;;3.50;0.65;;;;;;;;;;4934534;29;20040;-60
2023/07/01 18:15:33;;;;;;;0.57;0.40;;;;;;;;;;4932951;29;20026;-61
2023/07/01 18:18:00;;;;;;;0.52;0.43;;;;;;;;;;4933960;29;20032;-60
2023/07/01 18:20:26;;;;;;;0.80;0.45;;;;;;;;;;4932830;29;20471;-60
2023/07/01 18:22:53;;;;;;;0.68;0.60;;;;;;;;;;4935901;29;20028;-60
2023/07/01 18:25:20;;;;;;;3.13;0.88;;;;;;;;;;4937979;29;20087;-60
2023/07/01 18:27:47;;;;;;;0.80;0.50;;;;;;;;;;4938018;29;20494;-60
2023/07/01 18:30:13;;;;;;;7.53;1.02;;;;;;;;;;4948590;29;20494;-60
2023/07/01 18:32:40;;;;;;;0.65;0.57;;;;;;;;;;4938159;29;20028;-60
2023/07/01 18:35:07;;;;;;;0.47;0.32;;;;;;;;;;4934860;29;20442;-60
2023/07/01 18:37:34;;;;;;;0.70;0.50;;;;;;;;;;4932624;29;20382;-60
2023/07/01 18:40:01;;;;;;;0.90;0.55;;;;;;;;;;4932317;29;20028;-60
2023/07/01 18:42:27;;;;;;;0.55;0.38;;;;;;;;;;4932740;29;20094;-60
2023/07/01 18:44:54;;;;;;;1.95;0.50;;;;;;;;;;4935002;29;20131;-60
2023/07/01 18:47:21;;;;;;;1.17;0.63;;;;;;;;;;4937821;29;20024;-60
2023/07/01 18:49:48;;;;;;;0.35;0.30;;;;;;;;;;4937805;29;20511;-60
2023/07/01 18:52:14;;;;;;;0.70;0.55;;;;;;;;;;4937828;29;20478;-61
2023/07/01 18:54:41;;;;;;;1.20;0.85;;;;;;;;;;4937470;29;20505;-60
2023/07/01 18:57:08;;;;;;;1.15;0.73;;;;;;;;;;4934445;29;20043;-61
2023/07/01 18:59:35;;;;;;;2.28;0.80;;;;;;;;;;4932406;29;20028;-60
2023/07/01 19:02:01;;;;;;;8.45;1.52;;;;;;;;;;4932314;29;20074;-60
2023/07/01 19:04:28;;;;;;;1.23;0.73;;;;;;;;;;4932237;29;20040;-60
2023/07/01 19:06:55;;;;;;;0.50;0.43;;;;;;;;;;4934267;29;20502;-60
2023/07/01 19:09:22;;;;;;;1.42;1.02;;;;;;;;;;4937543;29;20050;-61
2023/07/01 19:11:49;;;;;;;1.10;0.77;;;;;;;;;;4937476;29;20386;-60
2023/07/01 19:14:16;;;;;;;3.85;0.40;;;;;;;;;;4937113;29;20024;-60
2023/07/01 19:16:43;;;;;;;3.13;0.65;;;;;;;;;;4936963;29;20175;-61
2023/07/01 19:19:09;;;;;;;1.30;0.60;;;;;;;;;;4954206;29;20497;-61
2023/07/01 19:21:36;;;;;;;0.40;0.40;;;;;;;;;;4945251;29;20405;-60
2023/07/01 19:24:03;;;;;;;17.08;11.25;;;;;;;;;;4931735;29;20031;-60
2023/07/01 19:26:30;;;;;;;21.25;15.35;;;;;;;;;;4932762;29;20020;-60
2023/07/01 19:28:57;;;;;;;8.48;2.60;;;;;;;;;;4916807;29;20377;-60
2023/07/01 19:31:23;;;;;;;2.75;0.80;;;;;;;;;;4955880;29;20031;-60
2023/07/01 19:33:50;;;;;;;1.25;0.90;;;;;;;;;;4954159;29;20027;-60
2023/07/01 19:36:17;;;;;;;1.08;0.68;;;;;;;;;;4956031;29;20051;-60
2023/07/01 19:38:43;;;;;;;0.65;0.50;;;;;;;;;;4947756;29;20380;-61
2023/07/01 19:41:10;;;;;;;0.55;0.55;;;;;;;;;;4935219;29;20517;-60
2023/07/01 19:43:37;;;;;;;0.98;0.68;;;;;;;;;;4931205;29;20529;-60
2023/07/01 19:46:04;;;;;;;1.30;1.02;;;;;;;;;;4931080;29;20056;-60
2023/07/01 19:48:32;;;;;;;0.93;0.70;;;;;;;;;;4931249;29;20023;-60
2023/07/01 19:50:59;;;;;;;1.33;0.70;;;;;;;;;;4932265;29;21056;-60
2023/07/01 19:53:26;;;;;;;0.85;0.60;;;;;;;;;;4937529;29;20032;-60
2023/07/01 19:55:53;;;;;;;1.38;0.80;;;;;;;;;;4955592;29;20059;-60
2023/07/01 19:58:23;;;;;;;0.75;0.57;;;;;;;;;;4955665;29;20031;-60
2023/07/01 20:00:50;;;;;;;2.42;1.00;;;;;;;;;;4955042;29;20090;-60
2023/07/01 20:03:18;;;;;;;1.50;0.93;;;;;;;;;;4954211;29;20023;-61
2023/07/01 20:05:45;;;;;;;1.15;0.70;;;;;;;;;;4932799;29;20624;-60
2023/07/01 20:08:12;;;;;;;3.10;0.98;;;;;;;;;;4950058;29;20055;-60
2023/07/01 20:10:40;;;;;;;1.45;0.40;;;;;;;;;;4934865;29;20435;-60
2023/07/01 20:13:07;;;;;;;0.65;0.60;;;;;;;;;;4931610;29;20032;-59
2023/07/01 20:15:34;;;;;;;0.68;0.55;;;;;;;;;;4935881;29;20034;-57
2023/07/01 20:18:01;;;;;;;1.67;0.90;;;;;;;;;;4936018;29;20494;-57
2023/07/01 20:20:28;;;;;;;1.23;1.02;;;;;;;;;;4936287;29;20427;-61
2023/07/01 20:22:55;;;;;;;1.65;1.02;;;;;;;;;;4936128;29;20116;-60
2023/07/01 20:25:21;;;;;;;1.15;0.98;;;;;;;;;;4935281;29;20074;-60
2023/07/01 20:27:48;;;;;;;1.65;1.17;;;;;;;;;;4931534;29;20028;-61
2023/07/01 20:30:16;;;;;;;1.35;0.95;;;;;;;;;;4932398;29;20023;-61
2023/07/01 20:32:43;;;;;;;0.70;0.60;;;;;;;;;;4948164;29;20027;-61
2023/07/01 20:35:09;;;;;;;2.97;0.85;;;;;;;;;;4949127;29;20058;-62
2023/07/01 20:37:36;;;;;;;1.88;0.93;;;;;;;;;;4954894;29;20055;-62
2023/07/01 20:40:03;;;;;;;1.55;0.95;;;;;;;;;;4954929;29;20031;-62
2023/07/01 20:42:30;;;;;;;0.65;0.60;;;;;;;;;;4951276;29;20118;-65
2023/07/01 20:44:57;;;;;;;1.38;0.70;;;;;;;;;;4923990;29;20140;-61
2023/07/01 20:47:24;;;;;;;1.10;0.65;;;;;;;;;;4930268;29;20024;-60
2023/07/01 20:49:50;;;;;;;0.65;0.65;;;;;;;;;;4911289;29;20028;-61
2023/07/01 20:52:18;;;;;;;4.75;0.90;;;;;;;;;;4921171;29;20038;-61
2023/07/01 20:54:45;;;;;;;3.30;1.23;;;;;;;;;;4931349;29;20031;-61
2023/07/01 20:57:13;;;;;;;10.73;1.10;;;;;;;;;;4930218;29;20040;-60
2023/07/01 20:59:40;;;;;;;1.52;1.30;;;;;;;;;;4916614;29;20119;-60
2023/07/01 21:02:08;;;;;;;3.22;1.55;;;;;;;;;;4935366;29;20028;-60
2023/07/01 21:04:35;;;;;;;2.70;1.65;;;;;;;;;;4935415;29;20069;-60
2023/07/01 21:07:02;;;;;;;1.42;0.82;;;;;;;;;;4934800;29;20019;-60
2023/07/01 21:09:29;;;;;;;2.95;0.95;;;;;;;;;;4944688;29;20039;-60
2023/07/01 21:11:56;;;;;;;1.88;1.13;;;;;;;;;;4945204;29;20133;-61
2023/07/01 21:14:23;;;;;;;1.45;0.90;;;;;;;;;;4930955;29;20031;-60
2023/07/01 21:16:51;;;;;;;1.92;1.27;;;;;;;;;;4928147;29;20031;-60
2023/07/01 21:19:18;;;;;;;1.63;1.13;;;;;;;;;;4910819;29;20127;-60
2023/07/01 21:21:46;;;;;;;1.35;0.93;;;;;;;;;;4915030;29;20035;-60
2023/07/01 21:24:13;;;;;;;3.47;0.90;;;;;;;;;;4915123;29;20040;-60
2023/07/01 21:26:41;;;;;;;2.15;1.05;;;;;;;;;;4915623;29;20531;-60
2023/07/01 21:29:12;;;;;;;2.00;1.17;;;;;;;;;;4937515;29;20505;-59
2023/07/01 21:31:41;;;;;;;1.58;1.00;;;;;;;;;;4954038;29;20494;-60
2023/07/01 21:34:08;;;;;;;0.90;0.55;;;;;;;;;;4949447;29;20378;-60
2023/07/01 21:36:38;;;;;;;3.08;1.38;;;;;;;;;;4948369;29;20042;-60
2023/07/01 21:39:05;;;;;;;2.33;1.05;;;;;;;;;;4921555;29;20077;-59
2023/07/01 21:41:32;;;;;;;4.97;1.50;;;;;;;;;;4930898;29;20059;-59
2023/07/01 21:43:59;;;;;;;6.45;1.85;;;;;;;;;;4934239;29;20036;-60
2023/07/01 21:46:26;;;;;;;0.75;0.57;;;;;;;;;;4935139;29;20039;-60
2023/07/01 21:48:59;;;;;;;1.00;0.65;;;;;;;;;;4934859;29;20098;-60
2023/07/01 21:51:27;;;;;;;2.35;0.90;;;;;;;;;;4928902;29;20032;-60
2023/07/01 21:53:54;;;;;;;3.17;1.10;;;;;;;;;;4915590;29;20028;-60
2023/07/01 21:56:21;;;;;;;1.40;1.02;;;;;;;;;;4938292;29;20070;-60
2023/07/01 21:58:50;;;;;;;3.33;1.45;;;;;;;;;;4948899;29;20495;-60
2023/07/01 22:01:20;;;;;;;2.50;1.25;;;;;;;;;;4946588;29;20035;-60
2023/07/01 22:03:46;;;;;;;1.83;0.93;;;;;;;;;;4948899;29;20482;-61
2023/07/01 22:06:15;;;;;;;2.55;1.75;;;;;;;;;;4950506;29;20024;-58
2023/07/01 22:08:42;;;;;;;3.58;1.80;;;;;;;;;;4936078;29;20121;-59
2023/07/01 22:11:10;;;;;;;1.85;1.20;;;;;;;;;;4945528;29;20501;-59
2023/07/01 22:13:37;;;;;;;2.17;1.48;;;;;;;;;;4953159;29;20383;-59
2023/07/01 22:16:04;;;;;;;2.60;1.73;;;;;;;;;;4953451;29;20024;-59
2023/07/01 22:18:31;;;;;;;2.42;1.52;;;;;;;;;;4948434;29;20131;-59
2023/07/01 22:21:01;;;;;;;6.25;1.30;;;;;;;;;;4948078;29;20390;-60
2023/07/01 22:23:27;;;;;;;2.17;1.27;;;;;;;;;;4948435;29;20027;-59
2023/07/01 22:25:54;;;;;;;4.13;1.42;;;;;;;;;;4942083;29;20178;-59
2023/07/01 22:28:22;;;;;;;1.83;1.20;;;;;;;;;;4932291;29;20426;-59
2023/07/01 22:30:49;;;;;;;2.35;1.63;;;;;;;;;;4934432;29;20035;-59
2023/07/01 22:33:16;;;;;;;1.52;1.17;;;;;;;;;;4934509;29;20032;-59
2023/07/01 22:35:42;;;;;;;1.88;1.38;;;;;;;;;;4934413;29;20028;-59
2023/07/01 22:38:09;;;;;;;2.38;1.67;;;;;;;;;;4955031;29;20024;-59
2023/07/01 22:40:36;;;;;;;3.03;1.63;;;;;;;;;;4953604;29;20031;-59
2023/07/01 22:43:02;;;;;;;2.22;1.38;;;;;;;;;;4951183;29;20378;-59
2023/07/01 22:45:29;;;;;;;2.67;1.65;;;;;;;;;;4951248;29;20517;-59
2023/07/01 22:47:56;;;;;;;1.10;0.82;;;;;;;;;;4951618;29;20106;-59